Time;durP1;ratioP1;P1;durP2;ratioP2;P2;SDS_P1;SDS_P2;PMS_P1;PMS_P2;Temp;Humidity;BMP_temperature;BMP_pressure;BME280_temperature;BME280_humidity;BME280_pressure;Samples;Min_cycle;Max_cycle;Signal;HPM_P1;HPM_P2
2020/12/21 00:00:17;;;;;;;30.00;13.70;;;3.60;99.90;;;;;;4974810;28;20113;-76
2020/12/21 00:02:46;;;;;;;28.05;13.57;;;3.60;99.90;;;;;;4975170;28;20485;-77
2020/12/21 00:05:12;;;;;;;27.13;12.55;;;3.50;99.90;;;;;;4975213;28;20042;-77
2020/12/21 00:07:37;;;;;;;26.20;12.27;;;3.60;99.90;;;;;;4975092;28;20029;-77
2020/12/21 00:10:04;;;;;;;30.58;13.70;;;3.60;99.90;;;;;;4975010;28;20077;-77
2020/12/21 00:12:32;;;;;;;29.70;13.10;;;3.60;99.90;;;;;;4975558;28;20189;-77
2020/12/21 00:14:58;;;;;;;25.02;11.88;;;3.60;99.90;;;;;;4974730;28;20043;-76
2020/12/21 00:17:23;;;;;;;23.67;11.27;;;3.60;99.90;;;;;;4974915;28;20710;-77
2020/12/21 00:19:49;;;;;;;29.73;13.73;;;3.60;99.90;;;;;;4975231;28;20030;-76
2020/12/21 00:22:17;;;;;;;29.67;15.13;;;3.60;99.90;;;;;;4975043;28;20041;-77
2020/12/21 00:24:44;;;;;;;24.77;13.23;;;3.60;99.90;;;;;;4973789;28;20529;-77
2020/12/21 00:27:10;;;;;;;32.20;17.10;;;3.60;99.90;;;;;;4975189;28;20062;-77
2020/12/21 00:29:36;;;;;;;22.52;11.30;;;3.60;99.90;;;;;;4974792;28;20029;-76
2020/12/21 00:32:02;;;;;;;22.23;11.75;;;3.60;99.90;;;;;;4974820;28;20100;-76
2020/12/21 00:34:28;;;;;;;23.40;12.32;;;3.60;99.90;;;;;;4973605;28;20354;-75
2020/12/21 00:36:54;;;;;;;24.38;11.52;;;3.60;99.90;;;;;;4974754;28;20054;-76
2020/12/21 00:39:21;;;;;;;26.75;12.18;;;3.70;99.90;;;;;;4974490;28;20023;-76
2020/12/21 00:41:47;;;;;;;29.48;12.60;;;3.60;99.90;;;;;;4973203;28;20097;-76
2020/12/21 00:44:14;;;;;;;25.65;11.43;;;3.60;99.90;;;;;;4974379;28;20027;-76
2020/12/21 00:46:40;;;;;;;25.98;11.82;;;3.60;99.90;;;;;;4974737;28;20381;-76
2020/12/21 00:49:06;;;;;;;25.88;12.15;;;3.60;99.90;;;;;;4974725;28;20058;-77
2020/12/21 00:51:33;;;;;;;27.92;12.35;;;3.60;99.90;;;;;;4974426;28;20041;-76
2020/12/21 00:53:58;;;;;;;48.47;13.15;;;3.60;99.90;;;;;;4974301;28;20027;-76
2020/12/21 00:56:24;;;;;;;35.65;11.90;;;3.60;99.90;;;;;;4974603;28;20081;-76
2020/12/21 00:58:51;;;;;;;83.60;15.32;;;3.50;99.90;;;;;;4973713;28;20057;-75
2020/12/21 01:01:20;;;;;;;35.55;14.00;;;3.50;99.90;;;;;;4973687;28;20022;-75
2020/12/21 01:03:46;;;;;;;81.32;15.30;;;3.50;99.90;;;;;;4956400;28;20019;-76
2020/12/21 01:06:13;;;;;;;65.07;14.70;;;3.40;99.90;;;;;;4974113;28;20053;-76
2020/12/21 01:08:39;;;;;;;79.10;17.40;;;3.40;99.90;;;;;;4974117;28;20022;-76
2020/12/21 01:11:16;;;;;;;126.13;18.83;;;3.40;99.90;;;;;;4974585;28;20022;-76
2020/12/21 01:13:42;;;;;;;97.15;17.85;;;3.30;99.90;;;;;;4974462;28;20397;-76
2020/12/21 01:16:08;;;;;;;59.97;15.82;;;3.20;99.90;;;;;;4974301;28;20060;-75
2020/12/21 01:18:34;;;;;;;98.95;15.90;;;3.20;99.90;;;;;;4972692;28;20100;-75
2020/12/21 01:21:00;;;;;;;79.72;15.57;;;3.10;99.90;;;;;;4974406;28;20034;-76
2020/12/21 01:23:26;;;;;;;108.07;14.82;;;3.10;99.90;;;;;;4973960;28;20019;-75
2020/12/21 01:25:52;;;;;;;29.75;11.63;;;3.10;99.90;;;;;;4973504;28;20027;-75
2020/12/21 01:28:17;;;;;;;25.77;10.65;;;3.00;99.90;;;;;;4973315;28;20031;-74
2020/12/21 01:30:43;;;;;;;22.80;10.68;;;2.90;99.90;;;;;;4972989;28;20026;-75
2020/12/21 01:33:10;;;;;;;31.67;12.65;;;2.80;99.90;;;;;;4973413;28;20026;-75
2020/12/21 01:35:36;;;;;;;24.38;11.48;;;2.70;99.90;;;;;;4973292;28;20429;-75
2020/12/21 01:38:02;;;;;;;20.35;10.00;;;2.60;99.90;;;;;;4973130;28;20090;-74
2020/12/21 01:40:28;;;;;;;17.92;9.68;;;2.60;99.90;;;;;;4973387;28;20023;-74
2020/12/21 01:42:54;;;;;;;22.38;10.93;;;2.60;99.90;;;;;;4973203;28;20027;-75
2020/12/21 01:45:19;;;;;;;22.10;11.38;;;2.60;99.90;;;;;;4973364;28;20043;-76
2020/12/21 01:47:45;;;;;;;23.58;11.10;;;2.60;99.90;;;;;;4973152;28;20070;-74
2020/12/21 01:50:13;;;;;;;19.65;10.65;;;2.50;99.90;;;;;;4973115;28;20130;-75
2020/12/21 01:52:39;;;;;;;23.15;11.75;;;2.50;99.90;;;;;;4973039;28;20027;-75
2020/12/21 01:55:05;;;;;;;24.00;11.43;;;2.50;99.90;;;;;;4973112;28;20038;-75
2020/12/21 01:57:31;;;;;;;27.63;12.35;;;2.50;99.90;;;;;;4975592;28;20027;-75
2020/12/21 01:59:56;;;;;;;24.52;11.60;;;2.40;99.90;;;;;;4977538;28;20102;-76
2020/12/21 02:02:23;;;;;;;28.70;13.30;;;2.40;99.90;;;;;;4977082;28;20661;-74
2020/12/21 02:04:48;;;;;;;24.85;12.52;;;2.40;99.90;;;;;;4976790;28;20098;-74
2020/12/21 02:07:15;;;;;;;31.80;13.43;;;2.40;99.90;;;;;;4976428;28;20435;-75
2020/12/21 02:09:42;;;;;;;26.63;12.38;;;2.40;99.90;;;;;;4976675;28;20022;-75
2020/12/21 02:12:08;;;;;;;25.15;12.02;;;2.40;99.90;;;;;;4976836;28;20026;-75
2020/12/21 02:14:34;;;;;;;27.38;13.23;;;2.50;99.90;;;;;;4976378;28;20073;-74
2020/12/21 02:17:00;;;;;;;21.23;10.82;;;2.50;99.90;;;;;;4976363;28;20473;-75
2020/12/21 02:19:26;;;;;;;27.60;12.45;;;2.50;99.90;;;;;;4976440;28;20039;-75
2020/12/21 02:21:51;;;;;;;34.38;13.40;;;2.50;99.90;;;;;;4975147;28;20030;-75
2020/12/21 02:24:17;;;;;;;26.33;12.68;;;2.50;99.90;;;;;;4976318;28;20458;-75
2020/12/21 02:26:43;;;;;;;28.25;12.07;;;2.50;99.90;;;;;;4976208;28;20025;-74
2020/12/21 02:29:09;;;;;;;33.58;12.85;;;2.50;99.90;;;;;;4976415;28;20033;-75
2020/12/21 02:31:35;;;;;;;71.80;15.30;;;2.60;99.90;;;;;;4975032;28;20140;-75
2020/12/21 02:34:01;;;;;;;40.35;11.70;;;2.50;99.90;;;;;;4976261;28;20514;-75
2020/12/21 02:36:27;;;;;;;68.47;14.98;;;2.50;99.90;;;;;;4976193;28;20038;-75
2020/12/21 02:38:52;;;;;;;57.75;14.55;;;2.50;99.90;;;;;;4975915;28;20493;-75
2020/12/21 02:41:19;;;;;;;64.95;16.30;;;2.50;99.90;;;;;;4976163;28;20098;-75
2020/12/21 02:43:45;;;;;;;49.13;11.93;;;2.40;99.90;;;;;;4976054;28;20046;-76
2020/12/21 02:46:13;;;;;;;38.85;13.05;;;2.40;99.90;;;;;;4976158;28;20024;-76
2020/12/21 02:48:38;;;;;;;57.30;14.93;;;2.30;99.90;;;;;;4976020;28;20031;-74
2020/12/21 02:51:04;;;;;;;68.68;15.05;;;2.30;99.90;;;;;;4975896;28;20025;-75
2020/12/21 02:53:30;;;;;;;98.20;16.77;;;2.20;99.90;;;;;;4976004;28;20035;-74
2020/12/21 02:55:56;;;;;;;54.70;13.05;;;2.20;99.90;;;;;;4976075;28;20126;-74
2020/12/21 02:58:22;;;;;;;108.90;15.68;;;2.20;99.90;;;;;;4975670;28;20030;-75
2020/12/21 03:00:47;;;;;;;60.95;13.65;;;2.20;99.90;;;;;;4958387;28;20026;-74
2020/12/21 03:03:13;;;;;;;78.25;15.80;;;2.20;99.90;;;;;;4975644;28;20027;-75
2020/12/21 03:05:40;;;;;;;254.45;25.65;;;2.10;99.90;;;;;;4975458;28;20023;-74
2020/12/21 03:08:06;;;;;;;72.30;14.45;;;2.10;99.90;;;;;;4975416;28;20410;-75
2020/12/21 03:10:33;;;;;;;122.82;17.33;;;2.10;99.90;;;;;;4975638;28;20041;-75
2020/12/21 03:12:59;;;;;;;427.13;34.97;;;2.10;99.90;;;;;;4974707;28;20547;-75
2020/12/21 03:15:25;;;;;;;91.93;18.58;;;2.10;99.90;;;;;;4974336;28;20042;-76
2020/12/21 03:17:50;;;;;;;97.88;16.05;;;2.10;99.90;;;;;;4975678;28;20035;-75
2020/12/21 03:20:16;;;;;;;64.82;14.85;;;2.00;99.90;;;;;;4975415;28;20397;-75
2020/12/21 03:22:42;;;;;;;81.13;15.38;;;2.00;99.90;;;;;;4975535;28;20113;-75
2020/12/21 03:25:08;;;;;;;45.67;14.05;;;2.10;99.90;;;;;;4975304;28;20110;-76
2020/12/21 03:27:35;;;;;;;270.45;26.05;;;2.10;99.90;;;;;;4975382;28;20030;-76
2020/12/21 03:30:03;;;;;;;116.82;17.33;;;2.10;99.90;;;;;;4975430;28;20023;-76
2020/12/21 03:32:29;;;;;;;51.55;14.65;;;2.10;99.90;;;;;;4975274;28;20022;-76
2020/12/21 03:34:55;;;;;;;129.90;17.45;;;2.10;99.90;;;;;;4957887;28;20493;-75
2020/12/21 03:37:21;;;;;;;136.50;18.88;;;2.10;99.90;;;;;;4975253;28;20365;-75
2020/12/21 03:39:47;;;;;;;277.58;26.23;;;2.10;99.90;;;;;;4975146;28;20307;-75
2020/12/21 03:42:13;;;;;;;447.73;35.03;;;2.10;99.90;;;;;;4974840;28;20098;-75
2020/12/21 03:44:38;;;;;;;202.80;21.80;;;2.20;99.90;;;;;;4975003;28;20027;-74
2020/12/21 03:47:04;;;;;;;588.72;49.70;;;2.10;99.90;;;;;;4974850;28;20034;-74
2020/12/21 03:49:30;;;;;;;240.23;22.75;;;2.10;99.90;;;;;;4973906;28;20031;-74
2020/12/21 03:51:55;;;;;;;302.02;29.85;;;2.00;99.90;;;;;;4974958;28;20038;-76
2020/12/21 03:54:22;;;;;;;211.25;23.58;;;2.00;99.90;;;;;;4974736;28;20525;-75
2020/12/21 03:56:48;;;;;;;208.73;21.75;;;2.00;99.90;;;;;;4974813;28;20034;-74
2020/12/21 03:59:14;;;;;;;393.00;37.28;;;2.00;99.90;;;;;;4974726;28;20393;-75
2020/12/21 04:01:40;;;;;;;402.30;35.40;;;1.90;99.90;;;;;;4974584;28;20446;-75
2020/12/21 04:04:06;;;;;;;477.42;42.30;;;1.90;99.90;;;;;;4974315;28;20117;-75
2020/12/21 04:06:36;;;;;;;367.92;34.35;;;1.90;99.90;;;;;;4974375;28;20041;-76
2020/12/21 04:09:03;;;;;;;370.67;35.80;;;1.90;99.90;;;;;;4974347;28;20031;-76
2020/12/21 04:11:29;;;;;;;500.25;46.83;;;1.90;99.90;;;;;;4974322;28;20031;-75
2020/12/21 04:13:55;;;;;;;521.78;54.22;;;1.80;99.90;;;;;;4974122;28;20078;-76
2020/12/21 04:16:21;;;;;;;315.42;40.22;;;1.90;99.90;;;;;;4974155;28;20073;-75
2020/12/21 04:18:47;;;;;;;360.48;44.00;;;1.80;99.90;;;;;;4973630;28;20160;-74
2020/12/21 04:21:14;;;;;;;630.65;70.40;;;1.80;99.90;;;;;;4972750;28;20031;-75
2020/12/21 04:23:40;;;;;;;349.60;46.15;;;1.70;99.90;;;;;;4974080;28;20473;-74
2020/12/21 04:26:07;;;;;;;209.27;38.38;;;1.70;99.90;;;;;;4973988;28;20074;-75
2020/12/21 04:28:34;;;;;;;259.10;45.70;;;1.60;99.90;;;;;;4974055;28;20046;-76
2020/12/21 04:31:00;;;;;;;387.30;53.00;;;1.50;99.90;;;;;;4956413;28;20031;-75
2020/12/21 04:33:26;;;;;;;243.70;39.13;;;1.50;99.90;;;;;;4972709;28;20034;-75
2020/12/21 04:35:52;;;;;;;323.17;43.55;;;1.50;99.90;;;;;;4973834;28;20041;-75
2020/12/21 04:38:19;;;;;;;251.23;40.00;;;1.50;99.90;;;;;;4973744;28;20050;-74
2020/12/21 04:40:55;;;;;;;304.73;43.85;;;1.50;99.90;;;;;;4973891;28;20037;-75
2020/12/21 04:43:22;;;;;;;206.85;36.22;;;1.50;99.90;;;;;;4973589;28;20022;-75
2020/12/21 04:45:53;;;;;;;256.10;39.58;;;1.50;99.90;;;;;;4973516;28;20042;-74
2020/12/21 04:48:22;;;;;;;259.40;39.80;;;1.40;99.90;;;;;;4972216;28;20031;-74
2020/12/21 04:50:54;;;;;;;422.83;53.40;;;1.50;99.90;;;;;;4973435;28;20031;-74
2020/12/21 04:53:21;;;;;;;231.68;42.15;;;1.40;99.90;;;;;;4973514;28;20462;-74
2020/12/21 04:55:47;;;;;;;98.00;29.10;;;1.50;99.90;;;;;;4973330;28;20038;-73
2020/12/21 04:58:13;;;;;;;96.90;29.23;;;1.40;99.90;;;;;;4973105;28;20043;-74
2020/12/21 05:00:38;;;;;;;74.55;25.40;;;1.40;99.90;;;;;;4971944;28;20026;-75
2020/12/21 05:03:05;;;;;;;81.55;28.52;;;1.30;99.90;;;;;;4972764;28;20018;-75
2020/12/21 05:05:39;;;;;;;76.10;24.35;;;1.30;99.90;;;;;;4973054;28;20102;-75
2020/12/21 05:08:18;;;;;;;85.57;28.95;;;1.30;99.90;;;;;;4973217;28;20030;-75
2020/12/21 05:10:58;;;;;;;57.50;22.40;;;1.30;99.90;;;;;;4973247;28;20058;-76
2020/12/21 05:13:24;;;;;;;49.03;20.33;;;1.30;99.90;;;;;;4955714;28;20098;-76
2020/12/21 05:15:51;;;;;;;62.03;24.15;;;1.30;99.90;;;;;;4972872;28;20031;-76
2020/12/21 05:18:17;;;;;;;63.22;23.67;;;1.30;99.90;;;;;;4972705;28;20054;-75
2020/12/21 05:20:44;;;;;;;51.85;19.38;;;1.30;99.90;;;;;;4971811;28;20030;-75
2020/12/21 05:23:16;;;;;;;55.95;21.23;;;1.30;99.90;;;;;;4971800;28;20533;-75
2020/12/21 05:25:43;;;;;;;55.28;21.63;;;1.30;99.90;;;;;;4972580;28;20033;-74
2020/12/21 05:28:14;;;;;;;52.75;20.92;;;1.30;99.90;;;;;;4972694;28;20030;-74
2020/12/21 05:30:54;;;;;;;63.92;25.80;;;1.20;99.90;;;;;;4972601;28;20425;-74
2020/12/21 05:33:20;;;;;;;58.38;24.23;;;1.20;99.90;;;;;;4972361;28;20026;-74
2020/12/21 05:35:50;;;;;;;61.08;26.10;;;1.20;99.90;;;;;;4972472;28;20077;-74
2020/12/21 05:38:24;;;;;;;58.22;24.00;;;1.20;99.90;;;;;;4972441;28;20057;-76
2020/12/21 05:40:50;;;;;;;50.75;21.85;;;1.20;99.90;;;;;;4972275;28;20015;-75
2020/12/21 05:43:29;;;;;;;55.92;23.83;;;1.20;99.90;;;;;;4972489;28;20058;-76
2020/12/21 05:46:13;;;;;;;56.75;23.77;;;1.20;99.90;;;;;;4972275;28;20023;-74
2020/12/21 05:48:45;;;;;;;51.17;19.77;;;1.20;99.90;;;;;;4972164;28;20038;-75
2020/12/21 05:51:19;;;;;;;48.10;21.67;;;1.20;99.90;;;;;;4972168;28;20461;-75
2020/12/21 05:53:45;;;;;;;59.33;23.15;;;1.10;99.90;;;;;;4971169;28;20118;-75
2020/12/21 05:56:11;;;;;;;57.63;23.17;;;1.10;99.90;;;;;;4972292;28;20177;-76
2020/12/21 05:58:40;;;;;;;53.60;21.83;;;1.10;99.90;;;;;;4972743;28;20027;-77
2020/12/21 06:01:11;;;;;;;49.75;19.52;;;1.10;99.90;;;;;;4972880;28;20026;-78
2020/12/21 06:03:37;;;;;;;58.40;21.77;;;1.00;99.90;;;;;;4972286;28;20022;-74
2020/12/21 06:06:25;;;;;;;56.17;21.73;;;1.00;99.90;;;;;;4971865;28;20027;-74
2020/12/21 06:08:56;;;;;;;51.63;19.13;;;0.90;99.90;;;;;;4954124;28;20038;-74
2020/12/21 06:11:29;;;;;;;43.00;18.75;;;0.90;99.90;;;;;;4971491;28;20030;-75
2020/12/21 06:14:04;;;;;;;48.10;21.38;;;0.90;99.90;;;;;;4971826;28;20122;-77
2020/12/21 06:16:32;;;;;;;56.88;22.48;;;0.80;99.90;;;;;;4972018;28;20118;-75
2020/12/21 06:19:08;;;;;;;40.28;17.98;;;0.80;99.90;;;;;;4971572;28;20112;-75
2020/12/21 06:21:53;;;;;;;43.78;18.50;;;0.70;99.90;;;;;;4971761;28;20154;-76
2020/12/21 06:24:21;;;;;;;44.92;18.92;;;0.70;99.90;;;;;;4970134;28;20019;-75
2020/12/21 06:26:48;;;;;;;42.55;19.40;;;0.60;99.90;;;;;;4971400;28;20045;-76
2020/12/21 06:29:16;;;;;;;48.53;20.67;;;0.70;99.90;;;;;;4971493;28;20023;-77
2020/12/21 06:31:49;;;;;;;43.78;19.85;;;0.70;99.90;;;;;;4971280;28;20113;-77
2020/12/21 06:34:35;;;;;;;;;;;0.60;99.90;;;;;;4972189;28;20103;-77
2020/12/21 06:37:04;;;;;;;49.55;21.98;;;0.70;99.90;;;;;;4970905;28;20360;-76
2020/12/21 06:39:31;;;;;;;40.95;17.92;;;0.70;99.90;;;;;;4971548;28;20027;-76
2020/12/21 06:42:26;;;;;;;41.22;17.13;;;0.70;99.90;;;;;;4970404;28;20066;-80
2020/12/21 06:44:57;;;;;;;37.22;17.33;;;0.70;99.90;;;;;;4958227;28;20114;-80
2020/12/21 06:47:25;;;;;;;40.17;17.83;;;0.70;99.90;;;;;;4975339;28;20030;-78
2020/12/21 06:49:51;;;;;;;36.67;17.17;;;0.70;99.90;;;;;;4975072;28;20204;-78
2020/12/21 06:52:17;;;;;;;33.25;15.23;;;0.70;99.90;;;;;;4975407;28;20150;-77
2020/12/21 06:54:44;;;;;;;33.83;15.98;;;0.60;99.90;;;;;;4975128;28;20019;-78
2020/12/21 06:57:11;;;;;;;43.58;19.05;;;0.70;99.90;;;;;;4957632;28;20350;-78
2020/12/21 06:59:36;;;;;;;34.20;16.25;;;0.70;99.90;;;;;;4974129;28;20026;-77
2020/12/21 07:02:03;;;;;;;37.25;15.05;;;0.70;99.90;;;;;;4975221;28;20034;-78
2020/12/21 07:04:30;;;;;;;30.60;13.57;;;0.60;99.90;;;;;;4974825;28;20027;-78
2020/12/21 07:07:06;;;;;;;34.17;15.55;;;0.60;99.90;;;;;;4975351;28;20050;-78
2020/12/21 07:09:36;;;;;;;41.05;14.90;;;0.50;99.90;;;;;;4974829;28;20158;-76
2020/12/21 07:12:06;;;;;;;40.47;18.15;;;0.50;99.90;;;;;;4973682;28;20085;-78
2020/12/21 07:14:43;;;;;;;32.80;15.23;;;0.40;99.90;;;;;;4973560;28;20059;-79
2020/12/21 07:17:17;;;;;;;34.85;14.35;;;0.50;99.90;;;;;;4975194;28;20145;-77
2020/12/21 07:19:43;;;;;;;30.50;14.35;;;0.50;99.90;;;;;;4974571;28;20100;-77
2020/12/21 07:22:11;;;;;;;32.13;16.00;;;0.50;99.90;;;;;;4974942;28;20473;-77
2020/12/21 07:24:38;;;;;;;32.30;15.88;;;0.60;99.90;;;;;;4975041;28;20101;-77
2020/12/21 07:27:05;;;;;;;30.60;15.48;;;0.60;99.90;;;;;;4973302;28;20077;-78
2020/12/21 07:29:43;;;;;;;36.95;17.90;;;0.60;99.90;;;;;;4973715;28;20389;-77
2020/12/21 07:32:10;;;;;;;34.22;16.48;;;0.70;99.90;;;;;;4974563;28;20034;-76
2020/12/21 07:34:36;;;;;;;33.20;16.27;;;0.70;99.90;;;;;;4974744;28;20026;-77
2020/12/21 07:37:11;;;;;;;33.75;15.45;;;0.70;99.90;;;;;;4973365;28;20054;-77
2020/12/21 07:39:38;;;;;;;28.58;13.80;;;0.80;99.90;;;;;;4974592;28;20051;-78
2020/12/21 07:42:08;;;;;;;36.80;16.55;;;0.80;99.90;;;;;;4973263;28;20114;-76
2020/12/21 07:44:44;;;;;;;24.98;11.98;;;0.90;99.90;;;;;;4974528;28;20025;-79
2020/12/21 07:47:23;;;;;;;33.50;16.02;;;0.90;99.90;;;;;;4957675;28;20494;-82
2020/12/21 07:49:49;;;;;;;26.52;12.75;;;0.90;99.90;;;;;;4974746;28;20027;-80
2020/12/21 07:52:18;;;;;;;30.98;15.43;;;0.90;99.90;;;;;;4974957;28;20350;-82
2020/12/21 07:54:44;;;;;;;31.00;15.20;;;0.90;99.90;;;;;;4974082;28;20103;-79
2020/12/21 07:57:17;;;;;;;28.00;12.90;;;0.80;99.90;;;;;;4973564;28;20030;-81
2020/12/21 07:59:43;;;;;;;31.27;13.68;;;0.80;99.90;;;;;;4957580;28;20027;-80
2020/12/21 08:02:09;;;;;;;34.03;16.10;;;0.90;99.90;;;;;;4976709;28;20041;-80
2020/12/21 08:04:36;;;;;;;30.95;15.05;;;0.90;99.90;;;;;;4975786;28;20030;-80
2020/12/21 08:07:12;;;;;;;62.63;25.95;;;0.90;99.90;;;;;;4973959;28;20051;-78
2020/12/21 08:09:39;;;;;;;31.02;15.43;;;0.90;99.90;;;;;;4973936;28;20370;-79
2020/12/21 08:12:12;;;;;;;28.45;13.38;;;0.90;99.90;;;;;;4973888;28;20030;-78
2020/12/21 08:14:38;;;;;;;28.30;12.98;;;0.90;99.90;;;;;;4973507;28;20042;-80
2020/12/21 08:17:14;;;;;;;33.75;15.57;;;1.00;99.90;;;;;;4973673;28;20496;-77
2020/12/21 08:19:46;;;;;;;23.15;11.57;;;0.90;99.90;;;;;;4972735;28;20037;-78
2020/12/21 08:22:11;;;;;;;30.75;15.23;;;0.90;99.90;;;;;;4973594;28;20023;-78
2020/12/21 08:24:37;;;;;;;32.75;16.42;;;1.00;99.90;;;;;;4973581;28;20042;-78
2020/12/21 08:27:04;;;;;;;35.08;15.98;;;1.00;99.90;;;;;;4973938;28;20031;-77
2020/12/21 08:29:30;;;;;;;31.27;15.38;;;0.90;99.90;;;;;;4973744;28;20149;-78
2020/12/21 08:31:55;;;;;;;26.50;12.82;;;0.90;99.90;;;;;;4973954;28;20122;-79
2020/12/21 08:34:21;;;;;;;32.22;16.52;;;1.00;99.90;;;;;;4973312;28;20046;-78
2020/12/21 08:36:47;;;;;;;30.05;14.63;;;1.00;99.90;;;;;;4973564;28;20102;-79
2020/12/21 08:39:18;;;;;;;26.67;14.05;;;0.90;99.90;;;;;;4971909;28;20026;-78
2020/12/21 08:41:51;;;;;;;26.10;12.55;;;0.90;99.90;;;;;;4973946;28;20086;-78
2020/12/21 08:44:23;;;;;;;34.90;15.13;;;0.90;99.90;;;;;;4973453;28;20474;-79
2020/12/21 08:46:55;;;;;;;32.80;13.52;;;0.90;99.90;;;;;;4973206;28;20073;-77
2020/12/21 08:49:22;;;;;;;35.83;15.27;;;0.90;99.90;;;;;;4956000;28;20031;-78
2020/12/21 08:51:48;;;;;;;27.38;13.75;;;0.90;99.90;;;;;;4973255;28;20050;-78
2020/12/21 08:54:14;;;;;;;26.92;12.48;;;0.90;99.90;;;;;;4972907;28;20034;-78
2020/12/21 08:56:56;;;;;;;31.58;14.93;;;0.80;99.90;;;;;;4973116;28;20027;-78
2020/12/21 08:59:23;;;;;;;24.05;12.70;;;0.70;99.90;;;;;;4973485;28;20033;-79
2020/12/21 09:01:49;;;;;;;25.23;12.98;;;0.70;99.90;;;;;;4973378;28;20527;-79
2020/12/21 09:04:15;;;;;;;20.95;11.75;;;0.70;99.90;;;;;;4972865;28;20019;-78
2020/12/21 09:06:40;;;;;;;22.88;12.07;;;0.70;99.90;;;;;;4971285;28;20018;-79
2020/12/21 09:09:08;;;;;;;36.00;17.23;;;0.60;99.90;;;;;;4972856;28;20023;-78
2020/12/21 09:11:34;;;;;;;39.20;18.27;;;0.60;99.90;;;;;;4972979;28;20102;-78
2020/12/21 09:14:00;;;;;;;22.38;12.32;;;0.60;99.90;;;;;;4972575;28;20043;-78
2020/12/21 09:16:27;;;;;;;18.23;10.02;;;0.60;99.90;;;;;;4972830;28;20122;-79
2020/12/21 09:18:54;;;;;;;16.33;8.65;;;0.50;99.90;;;;;;4973275;28;20027;-79
2020/12/21 09:21:30;;;;;;;13.43;7.70;;;0.50;99.90;;;;;;4955631;28;20355;-80
2020/12/21 09:23:58;;;;;;;18.77;9.50;;;0.40;99.90;;;;;;4971633;28;20097;-80
2020/12/21 09:26:24;;;;;;;17.13;9.80;;;0.40;99.90;;;;;;4972794;28;20030;-79
2020/12/21 09:28:51;;;;;;;20.30;9.57;;;0.40;99.90;;;;;;4971272;28;20034;-78
2020/12/21 09:31:19;;;;;;;15.10;8.30;;;0.40;99.90;;;;;;4972714;28;20026;-78
2020/12/21 09:33:46;;;;;;;17.00;9.05;;;0.40;99.90;;;;;;4972460;28;20027;-79
2020/12/21 09:36:12;;;;;;;23.30;10.88;;;0.40;99.90;;;;;;4972779;28;20098;-78
2020/12/21 09:38:38;;;;;;;17.80;9.55;;;0.40;99.90;;;;;;4972392;28;20037;-78
2020/12/21 09:41:04;;;;;;;16.00;9.25;;;0.40;99.90;;;;;;4972616;28;20378;-80
2020/12/21 09:43:31;;;;;;;25.45;12.93;;;0.30;99.90;;;;;;4973053;28;20099;-79
2020/12/21 09:45:57;;;;;;;23.23;10.70;;;0.40;99.90;;;;;;4972971;28;20031;-79
2020/12/21 09:48:23;;;;;;;17.83;9.93;;;0.40;99.90;;;;;;4955118;28;20109;-79
2020/12/21 09:50:49;;;;;;;15.10;8.32;;;0.50;99.90;;;;;;4972449;28;20042;-80
2020/12/21 09:53:16;;;;;;;32.30;18.02;;;0.40;99.90;;;;;;4971094;28;20533;-78
2020/12/21 09:55:42;;;;;;;17.55;10.88;;;0.40;99.90;;;;;;4972346;28;20027;-79
2020/12/21 09:58:08;;;;;;;15.27;9.35;;;0.30;99.90;;;;;;4971960;28;20109;-78
2020/12/21 10:00:34;;;;;;;19.63;11.48;;;0.30;99.90;;;;;;4954984;28;20157;-79
2020/12/21 10:03:00;;;;;;;16.60;10.50;;;0.30;99.90;;;;;;4971826;28;20472;-79
2020/12/21 10:05:25;;;;;;;18.33;9.75;;;0.20;99.90;;;;;;4972018;28;20421;-80
2020/12/21 10:07:51;;;;;;;20.55;10.98;;;0.20;99.90;;;;;;4972347;28;20035;-80
2020/12/21 10:10:17;;;;;;;17.85;9.75;;;0.10;99.90;;;;;;4972544;28;20137;-81
2020/12/21 10:12:42;;;;;;;21.42;11.25;;;0.10;99.90;;;;;;4972303;28;20406;-80
2020/12/21 10:15:08;;;;;;;20.70;11.02;;;0.00;99.90;;;;;;4970779;28;20118;-79
2020/12/21 10:17:34;;;;;;;17.98;10.52;;;0.00;99.90;;;;;;4973217;28;20365;-80
2020/12/21 10:20:00;;;;;;;23.73;12.15;;;0.00;99.90;;;;;;4975895;28;20029;-80
2020/12/21 10:22:25;;;;;;;20.02;12.20;;;0.00;99.90;;;;;;4976160;28;20066;-78
2020/12/21 10:24:51;;;;;;;15.13;9.63;;;-0.10;99.90;;;;;;4974830;28;20030;-80
2020/12/21 10:27:17;;;;;;;20.98;11.45;;;-0.10;99.90;;;;;;4975984;28;20030;-80
2020/12/21 10:29:43;;;;;;;19.63;10.48;;;-0.20;99.90;;;;;;4975680;28;20063;-78
2020/12/21 10:32:08;;;;;;;17.95;11.05;;;-0.20;99.90;;;;;;4975887;28;20023;-79
2020/12/21 10:34:34;;;;;;;26.20;17.48;;;-0.20;99.90;;;;;;4974875;28;20465;-81
2020/12/21 10:37:00;;;;;;;18.85;10.10;;;-0.30;99.90;;;;;;4976458;28;20019;-81
2020/12/21 10:39:26;;;;;;;16.05;9.85;;;-0.40;99.90;;;;;;4958955;28;20469;-79
2020/12/21 10:41:52;;;;;;;18.60;9.35;;;-0.40;99.90;;;;;;4975892;28;20027;-82
2020/12/21 10:44:18;;;;;;;11.20;7.68;;;-0.50;99.90;;;;;;4976212;28;20451;-79
2020/12/21 10:46:43;;;;;;;14.07;9.52;;;-0.50;99.90;;;;;;4975920;28;20027;-78
2020/12/21 10:49:09;;;;;;;22.17;12.32;;;-0.50;99.90;;;;;;4975784;28;20038;-77
2020/12/21 10:51:35;;;;;;;16.20;9.52;;;-0.40;99.90;;;;;;4975756;28;20159;-79
2020/12/21 10:54:02;;;;;;;13.02;8.45;;;-0.40;99.90;;;;;;4975207;28;20477;-77
2020/12/21 10:56:28;;;;;;;14.50;8.20;;;-0.40;99.90;;;;;;4976113;28;20436;-80
2020/12/21 10:58:55;;;;;;;15.68;9.43;;;-0.50;99.90;;;;;;4976079;28;20115;-80
2020/12/21 11:01:20;;;;;;;17.85;11.45;;;-0.50;99.90;;;;;;4958835;28;20341;-82
2020/12/21 11:03:46;;;;;;;24.52;13.68;;;-0.50;99.90;;;;;;4976715;28;20098;-81
2020/12/21 11:06:18;;;;;;;13.27;9.00;;;-0.50;99.90;;;;;;4975652;28;20030;-82
2020/12/21 11:08:44;;;;;;;12.55;7.03;;;-0.60;99.90;;;;;;4976633;28;20026;-80
2020/12/21 11:11:10;;;;;;;12.23;8.32;;;-0.60;99.90;;;;;;4976200;28;20111;-84
2020/12/21 11:13:39;;;;;;;20.08;9.88;;;-0.60;99.90;;;;;;4980242;28;20465;-82
2020/12/21 11:16:04;;;;;;;14.00;8.93;;;-0.60;99.90;;;;;;4976829;28;20062;-83
2020/12/21 11:18:30;;;;;;;19.95;12.30;;;-0.60;99.90;;;;;;4976054;28;20065;-80
2020/12/21 11:20:59;;;;;;;14.45;8.60;;;-0.70;99.90;;;;;;4975947;28;20066;-83
2020/12/21 11:23:24;;;;;;;14.45;9.25;;;-0.70;99.90;;;;;;4976538;28;20098;-76
2020/12/21 11:25:50;;;;;;;13.88;8.23;;;-0.80;99.90;;;;;;4975556;28;20438;-85
2020/12/21 11:28:16;;;;;;;16.63;9.88;;;-0.80;99.90;;;;;;4975236;28;20031;-77
2020/12/21 11:30:41;;;;;;;15.23;10.38;;;-0.80;99.90;;;;;;4974749;28;20086;-78
2020/12/21 11:33:07;;;;;;;12.93;8.43;;;-0.80;99.90;;;;;;4974657;28;20033;-78
2020/12/21 11:35:33;;;;;;;13.20;8.85;;;-0.80;99.90;;;;;;4974976;28;20065;-78
2020/12/21 11:37:58;;;;;;;15.25;9.88;;;-0.70;99.90;;;;;;4974727;28;20026;-76
2020/12/21 11:40:24;;;;;;;16.40;10.63;;;-0.70;99.90;;;;;;4974391;28;20497;-78
2020/12/21 11:42:50;;;;;;;18.33;11.18;;;-0.60;99.90;;;;;;4973014;28;20077;-79
2020/12/21 11:45:16;;;;;;;13.90;8.60;;;-0.60;99.90;;;;;;4974339;28;20098;-80
2020/12/21 11:47:41;;;;;;;15.48;8.85;;;-0.50;99.90;;;;;;4974321;28;20019;-80
2020/12/21 11:50:07;;;;;;;12.85;8.43;;;-0.50;99.90;;;;;;4974058;28;20428;-78
2020/12/21 11:52:33;;;;;;;8.45;6.82;;;-0.60;99.90;;;;;;4974611;28;20473;-81
2020/12/21 11:54:59;;;;;;;10.68;7.68;;;-0.60;99.90;;;;;;4975760;28;20094;-83
2020/12/21 11:57:26;;;;;;;16.10;9.73;;;-0.70;99.90;;;;;;4976089;28;20019;-82
2020/12/21 11:59:53;;;;;;;12.32;8.27;;;-0.70;99.90;;;;;;4976063;28;20385;-84
2020/12/21 12:02:19;;;;;;;17.58;10.80;;;-0.80;99.90;;;;;;4975942;28;20047;-85
2020/12/21 12:04:44;;;;;;;16.50;10.30;;;-0.80;99.90;;;;;;4974532;28;20087;-83
2020/12/21 12:07:10;;;;;;;19.33;10.95;;;-0.80;99.90;;;;;;4975575;28;20149;-87
2020/12/21 12:09:36;;;;;;;20.48;11.20;;;-0.80;99.90;;;;;;4974941;28;20134;-84
2020/12/21 12:12:02;;;;;;;17.13;10.85;;;-0.80;99.90;;;;;;4975527;28;20543;-84
2020/12/21 12:14:27;;;;;;;11.18;8.23;;;-0.80;99.90;;;;;;4975303;28;20072;-85
2020/12/21 12:16:57;;;;;;;16.98;9.63;;;-0.80;99.90;;;;;;4973971;28;20035;-85
2020/12/21 12:19:23;;;;;;;12.82;9.25;;;-0.90;99.90;;;;;;4975304;28;20031;-83
2020/12/21 12:21:50;;;;;;;14.70;8.55;;;-1.00;99.90;;;;;;4975279;28;20023;-83
2020/12/21 12:24:16;;;;;;;11.25;8.00;;;-0.90;99.90;;;;;;4973934;28;20370;-85
2020/12/21 12:26:42;;;;;;;14.93;8.93;;;-0.90;99.90;;;;;;4974882;28;20106;-84
2020/12/21 12:29:07;;;;;;;55.28;18.83;;;-1.00;99.90;;;;;;4958209;28;20031;-86
2020/12/21 12:31:33;;;;;;;12.30;8.23;;;-1.20;99.90;;;;;;4975976;28;20544;-83
2020/12/21 12:33:59;;;;;;;13.32;8.45;;;-1.20;99.90;;;;;;4976249;28;20034;-85
2020/12/21 12:36:27;;;;;;;14.32;9.18;;;-1.20;99.90;;;;;;4975065;28;20154;-82